Airfield :
LOGIN :

Register | Disclaimer

   EN    FR    IT 

 










Legend :    VFR   Marginal VFR   IFR   Intensive IFR   Very Intensive IFR
Visi :
Ceiling :
>= 8 km
>= 3000ft
5 to 8 km
1000 to 3000 ft
1500m to 5 km
500 to 1000 ft
800 to 1500m
200 to 500 ft
< 800m
< 200 ft
Symbols :   Thunderstorms  Fog  Heavy snow  Heavy precipitations  Wind > 20 kt
SIGMETs :     Misc.  Thunderstorms  Icing  Turbulence  Mountain Waves  Volcanic Ashes






- Airport Elevation : 412 ft
- IATA code : ORE


LFOJ - Orleans

CURRENT METAR :
  • 300930Z AUTO 05026KT CAVOK 04/M08 Q1026 TEMPO 04025G35KT

EXPIRED METARs :
  • 300900Z AUTO 04025KT CAVOK 03/M08 Q1027 TEMPO 04025G35KT
  • 300830Z AUTO 04023KT CAVOK 03/M08 Q1027 TEMPO 04025G35KT
  • 300800Z AUTO 04024KT CAVOK 02/M08 Q1027 TEMPO 04022G32KT
  • 300730Z AUTO 04022KT CAVOK 02/M08 Q1027 TEMPO 04022G32KT
  • 300700Z AUTO 03022KT CAVOK 01/M09 Q1027 TEMPO 04022G32KT

TAF AMD TAF LFOJ
Valid from the 30 at 09:00 until the 31 at 09:00 UTC


300821Z 3009/3109 04022KT CAVOK
TEMPO 3009/3018 04025G35KT



MET'MAP, your aeronautical weather chart ! - Copyright ORBIFLY December 2007 - Disclaimer

ORBIFLY MET'MAP TEAM :

Programming & Development : Alexandra Zaïnal
Concept & original design : Baudouin d'Aumeries
Assistance for programming : Marc-Olivier Méhu
Technical & hardware support : Manuel Goepfert

Contact : metmap@orbifly.com




SOURCES & CREDITS :

   NOAA